Time;durP1;ratioP1;P1;durP2;ratioP2;P2;SDS_P1;SDS_P2;PMS_P1;PMS_P2;Temp;Humidity;BMP_temperature;BMP_pressure;BME280_temperature;BME280_humidity;BME280_pressure;Samples;Min_cycle;Max_cycle;Signal;HPM_P1;HPM_P2
2021/06/18 00:01:48;;;;;;;12.00;9.80;;;19.20;99.90;;;;;;5070787;28;20960;-69
2021/06/18 00:04:14;;;;;;;11.60;10.50;;;19.20;99.90;;;;;;5070435;28;20554;-68
2021/06/18 00:06:43;;;;;;;13.30;11.90;;;19.20;99.90;;;;;;5070437;28;20504;-67
2021/06/18 00:09:10;;;;;;;11.93;10.73;;;19.10;99.90;;;;;;5069390;28;20960;-68
2021/06/18 00:11:37;;;;;;;12.80;10.73;;;19.10;99.90;;;;;;5071091;28;20458;-67
2021/06/18 00:14:05;;;;;;;10.37;9.40;;;19.10;99.90;;;;;;5070225;28;20485;-68
2021/06/18 00:16:32;;;;;;;9.47;8.57;;;19.10;99.90;;;;;;5070392;28;20534;-67
2021/06/18 00:18:59;;;;;;;9.00;8.10;;;19.10;99.90;;;;;;5068984;28;20453;-69
2021/06/18 00:21:26;;;;;;;13.67;8.93;;;19.00;99.90;;;;;;5070668;28;20457;-68
2021/06/18 00:23:54;;;;;;;10.07;9.07;;;19.00;99.90;;;;;;5071780;28;20459;-68
2021/06/18 00:26:21;;;;;;;10.33;9.10;;;18.90;99.90;;;;;;5071853;28;20447;-68
2021/06/18 00:28:48;;;;;;;11.33;10.23;;;18.90;99.90;;;;;;5071827;28;20497;-67
2021/06/18 00:31:15;;;;;;;11.97;9.80;;;18.80;99.90;;;;;;5071294;28;20475;-66
2021/06/18 00:33:42;;;;;;;10.87;9.90;;;18.80;99.90;;;;;;5072136;28;20996;-68
2021/06/18 00:36:09;;;;;;;10.03;9.07;;;18.80;99.90;;;;;;5071522;28;20530;-68
2021/06/18 00:38:36;;;;;;;10.27;9.23;;;18.80;99.90;;;;;;5072082;28;20447;-67
2021/06/18 00:41:05;;;;;;;10.53;9.50;;;18.80;99.90;;;;;;5071171;28;20447;-67
2021/06/18 00:43:31;;;;;;;10.83;9.07;;;18.80;99.90;;;;;;5071735;28;20478;-67
2021/06/18 00:45:58;;;;;;;11.60;10.40;;;18.70;99.90;;;;;;5071401;28;20457;-68
2021/06/18 00:48:26;;;;;;;10.63;9.60;;;18.70;99.90;;;;;;5071671;28;20566;-68
2021/06/18 00:50:54;;;;;;;11.27;10.17;;;18.60;99.90;;;;;;5070663;28;20486;-68
2021/06/18 00:53:20;;;;;;;12.37;10.50;;;18.50;99.90;;;;;;5071620;28;20493;-68
2021/06/18 00:55:48;;;;;;;11.30;10.27;;;18.40;99.90;;;;;;5071466;28;21012;-68
2021/06/18 00:58:17;;;;;;;13.03;10.60;;;18.40;99.90;;;;;;5071159;28;20439;-68
2021/06/18 01:00:45;;;;;;;10.90;9.90;;;18.40;99.90;;;;;;5070560;28;20937;-68
2021/06/18 01:03:12;;;;;;;11.47;10.37;;;18.30;99.90;;;;;;5071567;28;20565;-68
2021/06/18 01:05:40;;;;;;;11.73;10.63;;;18.30;99.90;;;;;;5071075;28;20529;-67
2021/06/18 01:08:12;;;;;;;11.97;10.83;;;18.20;99.90;;;;;;5071209;28;20475;-68
2021/06/18 01:10:48;;;;;;;11.67;10.67;;;18.10;99.90;;;;;;5070696;28;20961;-68
2021/06/18 01:13:25;;;;;;;11.93;10.63;;;18.10;99.90;;;;;;5071275;28;20553;-68
2021/06/18 01:16:02;;;;;;;11.40;10.40;;;18.10;99.90;;;;;;5071638;28;20523;-68
2021/06/18 01:18:36;;;;;;;12.27;11.17;;;18.20;99.90;;;;;;5071609;28;20538;-67
2021/06/18 01:21:13;;;;;;;11.50;10.50;;;18.20;99.90;;;;;;5070646;28;20451;-67
2021/06/18 01:23:54;;;;;;;14.10;11.50;;;18.20;99.90;;;;;;5071329;28;20473;-69
2021/06/18 01:26:42;;;;;;;11.87;9.80;;;18.30;99.90;;;;;;5071134;28;20435;-67
2021/06/18 01:29:11;;;;;;;12.13;11.03;;;18.20;99.90;;;;;;5070228;28;20585;-67
2021/06/18 01:31:41;;;;;;;11.40;10.20;;;18.20;99.90;;;;;;5071300;28;20451;-67
2021/06/18 01:34:12;;;;;;;12.20;11.00;;;18.20;99.90;;;;;;5071111;28;20549;-67
2021/06/18 01:36:41;;;;;;;11.83;10.63;;;18.20;99.90;;;;;;5070666;28;20485;-67
2021/06/18 01:39:10;;;;;;;12.60;11.40;;;18.10;99.90;;;;;;5069757;28;21033;-67
2021/06/18 01:41:39;;;;;;;11.80;10.70;;;18.00;99.90;;;;;;5070870;28;20676;-67
2021/06/18 01:44:09;;;;;;;12.20;11.00;;;17.90;99.90;;;;;;5070564;28;21192;-66
2021/06/18 01:46:38;;;;;;;11.97;10.77;;;17.80;99.90;;;;;;5070096;28;20534;-67
2021/06/18 01:49:08;;;;;;;13.00;11.70;;;17.80;99.90;;;;;;5069747;28;20550;-67
2021/06/18 01:51:36;;;;;;;13.10;11.80;;;17.70;99.90;;;;;;5070576;28;20494;-68
2021/06/18 01:54:05;;;;;;;13.43;12.07;;;17.70;99.90;;;;;;5070698;28;20931;-67
2021/06/18 01:56:33;;;;;;;14.03;12.73;;;17.70;99.90;;;;;;5070140;28;20826;-67
2021/06/18 01:59:02;;;;;;;12.10;11.00;;;17.60;99.90;;;;;;5069575;28;21024;-67
2021/06/18 02:01:33;;;;;;;12.73;11.27;;;17.50;99.90;;;;;;5070172;28;20917;-67
2021/06/18 02:04:03;;;;;;;13.37;10.97;;;17.40;99.90;;;;;;5070455;28;20467;-67
2021/06/18 02:06:32;;;;;;;12.40;11.30;;;17.40;99.90;;;;;;5070197;28;20835;-68
2021/06/18 02:09:01;;;;;;;12.67;11.30;;;17.40;99.90;;;;;;5069458;28;21084;-67
2021/06/18 02:11:31;;;;;;;13.83;12.10;;;17.30;99.90;;;;;;5070055;28;20447;-67
2021/06/18 02:13:59;;;;;;;13.33;11.97;;;17.30;99.90;;;;;;5069966;28;20467;-67
2021/06/18 02:16:28;;;;;;;11.90;10.77;;;17.30;99.90;;;;;;5069185;28;20451;-69
2021/06/18 02:18:57;;;;;;;13.20;11.90;;;17.20;99.90;;;;;;5069879;28;20482;-68
2021/06/18 02:21:26;;;;;;;13.17;11.67;;;17.20;99.90;;;;;;5069823;28;20461;-67
2021/06/18 02:23:55;;;;;;;12.90;11.70;;;17.20;99.90;;;;;;5070142;28;20463;-67
2021/06/18 02:26:24;;;;;;;13.83;12.53;;;17.20;99.90;;;;;;5069916;28;20542;-68
2021/06/18 02:28:52;;;;;;;12.57;11.30;;;17.20;99.90;;;;;;5070028;28;20508;-68
2021/06/18 02:31:21;;;;;;;17.17;12.27;;;17.20;99.90;;;;;;5069500;28;20457;-67
2021/06/18 02:33:49;;;;;;;13.60;12.30;;;17.20;99.90;;;;;;5069728;28;20466;-68
2021/06/18 02:36:16;;;;;;;14.83;11.83;;;17.10;99.90;;;;;;5069721;28;20550;-68
2021/06/18 02:38:45;;;;;;;12.07;10.97;;;17.10;99.90;;;;;;5070302;28;20558;-67
2021/06/18 02:41:12;;;;;;;13.10;11.80;;;17.10;99.90;;;;;;5069008;28;20451;-67
2021/06/18 02:43:39;;;;;;;11.87;10.70;;;17.10;99.90;;;;;;5069578;28;20565;-67
2021/06/18 02:46:06;;;;;;;12.03;11.00;;;17.00;99.90;;;;;;5069567;28;20785;-68
2021/06/18 02:48:42;;;;;;;13.00;11.73;;;17.00;99.90;;;;;;5069881;28;20443;-67
2021/06/18 02:51:17;;;;;;;13.10;11.67;;;17.00;99.90;;;;;;5069098;28;20434;-67
2021/06/18 02:53:49;;;;;;;11.33;10.10;;;17.00;99.90;;;;;;5069912;28;20479;-67
2021/06/18 02:56:22;;;;;;;13.97;10.57;;;17.00;99.90;;;;;;5069606;28;20455;-67
2021/06/18 02:58:54;;;;;;;10.63;9.73;;;17.00;99.90;;;;;;5069713;28;20551;-67
2021/06/18 03:01:24;;;;;;;11.03;8.80;;;17.00;99.90;;;;;;5069812;28;20530;-68
2021/06/18 03:03:55;;;;;;;10.03;9.20;;;17.00;99.90;;;;;;5069752;28;20566;-68
2021/06/18 03:06:22;;;;;;;10.20;9.20;;;17.00;99.90;;;;;;5069869;28;20584;-67
2021/06/18 03:08:58;;;;;;;10.97;9.93;;;17.00;99.90;;;;;;5069874;28;20546;-67
2021/06/18 03:11:28;;;;;;;12.43;11.20;;;17.10;99.90;;;;;;5070339;28;20455;-67
2021/06/18 03:13:56;;;;;;;12.30;11.10;;;17.20;99.90;;;;;;5070935;28;20474;-68
2021/06/18 03:16:24;;;;;;;11.63;10.40;;;17.20;99.90;;;;;;5069329;28;20488;-68
2021/06/18 03:18:54;;;;;;;11.27;10.07;;;17.30;99.90;;;;;;5069762;28;20578;-69
2021/06/18 03:21:22;;;;;;;12.57;10.27;;;17.30;99.90;;;;;;5069446;28;20558;-67
2021/06/18 03:23:52;;;;;;;10.73;9.63;;;17.40;99.90;;;;;;5069555;28;20481;-68
2021/06/18 03:26:20;;;;;;;11.53;10.50;;;17.40;99.90;;;;;;5069223;28;20948;-68
2021/06/18 03:28:48;;;;;;;15.07;10.97;;;17.50;99.90;;;;;;5071336;28;20822;-67
2021/06/18 03:31:19;;;;;;;10.80;9.67;;;17.50;99.90;;;;;;5072484;28;20457;-67
2021/06/18 03:33:46;;;;;;;10.43;9.53;;;17.60;99.90;;;;;;5073214;28;20462;-67
2021/06/18 03:36:16;;;;;;;12.27;11.07;;;17.70;99.90;;;;;;5072991;28;20449;-67
2021/06/18 03:38:44;;;;;;;11.93;10.70;;;17.80;99.90;;;;;;5073007;28;20478;-67
2021/06/18 03:41:13;;;;;;;11.87;10.67;;;17.80;99.90;;;;;;5072208;28;21025;-67
2021/06/18 03:43:40;;;;;;;9.80;8.90;;;17.70;99.90;;;;;;5072703;28;20471;-68
2021/06/18 03:46:08;;;;;;;11.53;9.93;;;17.70;99.90;;;;;;5073424;28;20897;-67
2021/06/18 03:48:37;;;;;;;11.30;10.20;;;17.70;99.90;;;;;;5074089;28;20443;-67
2021/06/18 03:51:06;;;;;;;12.70;11.37;;;17.70;99.90;;;;;;5072936;28;20827;-69
2021/06/18 03:53:33;;;;;;;15.70;11.07;;;17.70;99.90;;;;;;5072885;28;20467;-69
2021/06/18 03:56:00;;;;;;;11.40;10.23;;;17.80;99.90;;;;;;5072265;28;20455;-65
2021/06/18 03:58:30;;;;;;;14.23;11.37;;;17.80;99.90;;;;;;5072850;28;20482;-69
2021/06/18 04:00:58;;;;;;;12.37;11.07;;;17.80;99.90;;;;;;5071359;28;20461;-67
2021/06/18 04:03:27;;;;;;;12.47;11.37;;;17.80;99.90;;;;;;5072498;28;20833;-67
2021/06/18 04:05:59;;;;;;;12.37;10.77;;;17.80;99.90;;;;;;5072320;28;20443;-67
2021/06/18 04:08:27;;;;;;;13.57;11.20;;;17.80;99.90;;;;;;5072180;28;20951;-69
2021/06/18 04:10:54;;;;;;;13.90;10.93;;;17.80;99.90;;;;;;5071726;28;20461;-69
2021/06/18 04:13:22;;;;;;;14.97;11.10;;;17.80;99.90;;;;;;5072333;28;20470;-68
2021/06/18 04:15:50;;;;;;;12.77;9.67;;;17.80;99.90;;;;;;5072202;28;21015;-68
2021/06/18 04:18:21;;;;;;;12.40;11.10;;;17.80;99.90;;;;;;5071890;28;20988;-68
2021/06/18 04:20:50;;;;;;;12.57;11.37;;;17.80;99.90;;;;;;5071518;28;20454;-68
2021/06/18 04:23:17;;;;;;;11.30;10.10;;;17.90;99.90;;;;;;5071917;28;20478;-69
2021/06/18 04:25:43;;;;;;;11.57;10.47;;;18.00;99.90;;;;;;5072446;28;20446;-69
2021/06/18 04:28:10;;;;;;;14.40;12.03;;;18.10;99.90;;;;;;5071474;28;20545;-69
2021/06/18 04:30:37;;;;;;;12.33;10.80;;;18.10;99.90;;;;;;5071216;28;20541;-68
2021/06/18 04:33:06;;;;;;;11.13;10.13;;;18.20;99.90;;;;;;5072172;28;20566;-67
2021/06/18 04:35:32;;;;;;;12.53;10.30;;;18.30;99.90;;;;;;5071957;28;20449;-69
2021/06/18 04:38:00;;;;;;;11.90;10.80;;;18.40;99.90;;;;;;5071500;28;20445;-67
2021/06/18 04:40:27;;;;;;;11.90;10.73;;;18.50;99.90;;;;;;5070244;28;20500;-68
2021/06/18 04:42:53;;;;;;;11.93;9.80;;;18.50;99.90;;;;;;5071792;28;20581;-67
2021/06/18 04:45:21;;;;;;;11.07;10.07;;;18.60;99.90;;;;;;5071642;28;20443;-67
2021/06/18 04:47:48;;;;;;;10.87;9.77;;;18.60;99.90;;;;;;5071413;28;20466;-67
2021/06/18 04:50:17;;;;;;;12.47;11.17;;;18.60;99.90;;;;;;5070374;28;21107;-67
2021/06/18 04:52:46;;;;;;;11.73;10.73;;;18.70;99.90;;;;;;5071883;28;20554;-67
2021/06/18 04:55:16;;;;;;;13.27;11.80;;;18.80;99.90;;;;;;5071701;28;20482;-68
2021/06/18 04:57:43;;;;;;;12.83;10.23;;;18.90;99.90;;;;;;5068229;28;20814;-68
2021/06/18 05:00:11;;;;;;;11.93;10.83;;;19.00;99.90;;;;;;5071586;28;20984;-70
2021/06/18 05:02:38;;;;;;;11.80;10.80;;;19.10;99.90;;;;;;5072302;28;20805;-69
2021/06/18 05:05:05;;;;;;;12.40;11.20;;;19.10;99.90;;;;;;5070162;28;20451;-67
2021/06/18 05:07:33;;;;;;;11.63;10.63;;;19.20;99.90;;;;;;5068452;28;20537;-68
2021/06/18 05:10:00;;;;;;;11.70;10.53;;;19.30;99.90;;;;;;5069046;28;20526;-70
2021/06/18 05:12:28;;;;;;;10.97;9.87;;;19.30;99.90;;;;;;5072218;28;20459;-67
2021/06/18 05:14:54;;;;;;;12.17;10.90;;;19.50;99.90;;;;;;5088370;28;20443;-67
2021/06/18 05:17:21;;;;;;;11.80;9.90;;;19.70;99.90;;;;;;5088243;28;20537;-66
2021/06/18 05:19:48;;;;;;;11.00;9.90;;;19.70;99.90;;;;;;5090326;28;20478;-68
2021/06/18 05:22:15;;;;;;;11.63;10.40;;;19.80;99.90;;;;;;5067217;28;20448;-67
2021/06/18 05:24:43;;;;;;;11.07;9.97;;;19.90;99.90;;;;;;5050310;28;20544;-69
2021/06/18 05:27:10;;;;;;;11.80;10.70;;;19.90;99.90;;;;;;5049672;28;21140;-69
2021/06/18 05:29:37;;;;;;;13.67;11.30;;;20.00;99.90;;;;;;5049920;28;20547;-70
2021/06/18 05:32:05;;;;;;;12.30;11.10;;;20.00;99.90;;;;;;5050715;28;20448;-69
2021/06/18 05:34:32;;;;;;;12.20;10.40;;;20.10;99.90;;;;;;5050306;28;20502;-68
2021/06/18 05:36:59;;;;;;;12.53;11.23;;;20.20;99.90;;;;;;5050425;28;20535;-68
2021/06/18 05:39:26;;;;;;;11.03;9.87;;;20.30;99.90;;;;;;5049702;28;20486;-69
2021/06/18 05:41:54;;;;;;;11.63;10.43;;;20.40;99.90;;;;;;5050410;28;20971;-68
2021/06/18 05:44:21;;;;;;;11.73;10.13;;;20.60;99.90;;;;;;5050148;28;20534;-69
2021/06/18 05:46:48;;;;;;;10.80;9.70;;;20.70;99.90;;;;;;5049938;28;20485;-68
2021/06/18 05:49:15;;;;;;;13.67;10.33;;;20.80;99.90;;;;;;5049407;28;20993;-67
2021/06/18 05:51:42;;;;;;;10.47;9.57;;;20.90;99.90;;;;;;5050082;28;20979;-68
2021/06/18 05:54:10;;;;;;;12.57;10.30;;;21.00;99.90;;;;;;5050152;28;20575;-69
2021/06/18 05:56:37;;;;;;;12.60;11.50;;;21.10;99.90;;;;;;5049655;28;20452;-69
2021/06/18 05:59:05;;;;;;;13.53;10.73;;;21.20;99.90;;;;;;5049385;28;20880;-69
2021/06/18 06:01:32;;;;;;;13.73;11.30;;;21.30;99.90;;;;;;5050104;28;20484;-69
2021/06/18 06:03:59;;;;;;;11.93;10.83;;;21.40;99.90;;;;;;5050036;28;20522;-69
2021/06/18 06:06:27;;;;;;;13.13;11.30;;;21.60;99.90;;;;;;5049691;28;20551;-67
2021/06/18 06:08:54;;;;;;;12.87;11.17;;;21.60;99.90;;;;;;5049476;28;21030;-68
2021/06/18 06:11:21;;;;;;;13.30;11.90;;;21.70;99.90;;;;;;5049388;28;20551;-68
2021/06/18 06:13:49;;;;;;;12.37;11.13;;;21.80;99.90;;;;;;5049510;28;20474;-68
2021/06/18 06:16:17;;;;;;;12.50;11.20;;;21.90;99.90;;;;;;5049702;28;21150;-68
2021/06/18 06:18:44;;;;;;;12.50;10.90;;;22.00;99.90;;;;;;5049751;28;20566;-69
2021/06/18 06:21:11;;;;;;;11.80;10.60;;;22.20;99.90;;;;;;5048945;28;20448;-69
2021/06/18 06:23:38;;;;;;;11.90;10.70;;;22.30;99.90;;;;;;5031894;28;20460;-68
2021/06/18 06:26:06;;;;;;;12.00;10.23;;;22.50;99.90;;;;;;5049227;28;20523;-69
2021/06/18 06:28:34;;;;;;;14.23;10.70;;;22.60;99.90;;;;;;5049449;28;20506;-68
2021/06/18 06:31:01;;;;;;;11.57;10.40;;;22.70;99.90;;;;;;5048936;28;20514;-69
2021/06/18 06:33:30;;;;;;;14.13;9.60;;;22.80;99.90;;;;;;5049480;28;20464;-69
2021/06/18 06:35:57;;;;;;;11.50;9.47;;;22.90;99.90;;;;;;5049184;28;20953;-68
2021/06/18 06:38:24;;;;;;;10.10;9.17;;;23.00;99.90;;;;;;5049209;28;20450;-69
2021/06/18 06:40:52;;;;;;;11.10;9.23;;;23.10;99.90;;;;;;5048629;28;20487;-69
2021/06/18 06:43:20;;;;;;;10.10;8.80;;;23.30;99.90;;;;;;5049492;28;21079;-69
2021/06/18 06:45:46;;;;;;;11.77;8.23;;;23.50;99.90;;;;;;5049705;28;20482;-68
2021/06/18 06:48:13;;;;;;;10.47;9.47;;;23.50;99.90;;;;;;5049550;28;20864;-68
2021/06/18 06:50:43;;;;;;;9.43;8.53;;;23.70;99.90;;;;;;5048831;28;20446;-68
2021/06/18 06:53:10;;;;;;;9.60;8.57;;;23.80;99.90;;;;;;5049634;28;20503;-68
2021/06/18 06:55:38;;;;;;;8.80;7.90;;;23.90;99.90;;;;;;5049803;28;20452;-70
2021/06/18 06:58:05;;;;;;;8.90;8.10;;;24.00;99.90;;;;;;5049580;28;20540;-68
2021/06/18 07:00:32;;;;;;;9.17;8.27;;;24.20;99.90;;;;;;5049065;28;20483;-68
2021/06/18 07:02:59;;;;;;;8.67;7.87;;;24.30;99.90;;;;;;5050455;28;20464;-69
2021/06/18 07:05:26;;;;;;;10.60;8.57;;;24.50;99.90;;;;;;5053251;28;21024;-69
2021/06/18 07:07:54;;;;;;;10.80;8.00;;;24.60;99.90;;;;;;5053236;28;20497;-70
2021/06/18 07:10:22;;;;;;;8.07;7.37;;;24.70;99.90;;;;;;5052816;28;20988;-70
2021/06/18 07:12:48;;;;;;;7.90;7.10;;;24.90;99.90;;;;;;5053469;28;20544;-69
2021/06/18 07:15:16;;;;;;;7.97;7.17;;;24.90;99.90;;;;;;5053359;28;20531;-68
2021/06/18 07:17:44;;;;;;;9.77;8.50;;;25.10;99.90;;;;;;5053040;28;21022;-68
2021/06/18 07:20:12;;;;;;;10.00;8.10;;;25.10;99.90;;;;;;5052653;28;20476;-68
2021/06/18 07:22:39;;;;;;;8.00;7.20;;;25.20;99.90;;;;;;5053322;28;20570;-68
2021/06/18 07:25:09;;;;;;;8.47;7.57;;;25.30;99.90;;;;;;5053177;28;20439;-70
2021/06/18 07:27:36;;;;;;;9.37;7.30;;;25.40;99.90;;;;;;5061716;28;20551;-71
2021/06/18 07:30:04;;;;;;;9.77;6.93;;;25.50;99.90;;;;;;5068112;28;20978;-68
2021/06/18 07:32:31;;;;;;;10.83;7.20;;;25.50;99.90;;;;;;5062863;28;20546;-69
2021/06/18 07:34:58;;;;;;;8.70;6.80;;;25.80;99.90;;;;;;5073181;28;20535;-67
2021/06/18 07:37:25;;;;;;;7.63;6.83;;;25.80;99.90;;;;;;5072656;28;20537;-69
2021/06/18 07:39:52;;;;;;;7.00;6.30;;;25.90;99.90;;;;;;5072225;28;20585;-69
2021/06/18 07:42:20;;;;;;;7.10;6.40;;;26.00;99.90;;;;;;5072824;28;20895;-67
2021/06/18 07:44:48;;;;;;;8.70;6.30;;;26.00;99.90;;;;;;5073229;28;20451;-68
2021/06/18 07:47:15;;;;;;;8.53;7.67;;;26.10;99.90;;;;;;5072856;28;20469;-69
2021/06/18 07:49:42;;;;;;;8.17;7.20;;;26.20;99.90;;;;;;5072431;28;20439;-67
2021/06/18 07:52:09;;;;;;;7.60;6.90;;;26.40;99.90;;;;;;5073061;28;20451;-67
2021/06/18 07:54:35;;;;;;;7.80;6.80;;;26.40;99.90;;;;;;5072851;28;20475;-67
2021/06/18 07:57:03;;;;;;;8.23;6.73;;;26.60;99.90;;;;;;5072305;28;20454;-68
2021/06/18 07:59:31;;;;;;;7.77;6.97;;;26.70;99.90;;;;;;5072033;28;20506;-69
2021/06/18 08:01:58;;;;;;;8.00;7.20;;;26.90;99.90;;;;;;5071960;28;20477;-69
2021/06/18 08:04:24;;;;;;;8.07;7.27;;;27.00;99.90;;;;;;5072899;28;20211;-68
2021/06/18 08:06:51;;;;;;;10.40;7.47;;;27.00;99.90;;;;;;5072017;28;20453;-68
2021/06/18 08:09:18;;;;;;;8.53;7.60;;;27.10;99.90;;;;;;5056114;28;20444;-68
2021/06/18 08:11:45;;;;;;;8.70;7.37;;;27.10;99.90;;;;;;5052561;28;20530;-67
2021/06/18 08:14:12;;;;;;;7.70;6.90;;;27.10;99.90;;;;;;5051758;28;20530;-68
2021/06/18 08:16:40;;;;;;;8.57;7.33;;;27.20;99.90;;;;;;5051404;28;20452;-68
2021/06/18 08:19:07;;;;;;;7.90;7.20;;;27.40;99.90;;;;;;5051885;28;20494;-68
2021/06/18 08:21:34;;;;;;;7.20;6.60;;;27.40;99.90;;;;;;5052107;28;20951;-68
2021/06/18 08:24:01;;;;;;;10.53;7.30;;;27.50;99.90;;;;;;5052288;28;20511;-68
2021/06/18 08:26:28;;;;;;;8.13;7.33;;;27.60;99.90;;;;;;5059603;28;20478;-68
2021/06/18 08:28:54;;;;;;;7.67;7.03;;;27.80;99.90;;;;;;5059766;28;21202;-67
2021/06/18 08:31:21;;;;;;;8.27;7.33;;;28.00;99.90;;;;;;5062024;28;20436;-68
2021/06/18 08:33:50;;;;;;;8.27;7.40;;;28.00;99.90;;;;;;5060682;28;20538;-67
2021/06/18 08:36:17;;;;;;;8.60;7.80;;;28.00;99.90;;;;;;5069576;28;20447;-69
2021/06/18 08:38:44;;;;;;;8.43;7.60;;;28.10;99.90;;;;;;5072550;28;20435;-68
2021/06/18 08:41:11;;;;;;;8.60;7.80;;;28.10;99.90;;;;;;5071582;28;20493;-67
2021/06/18 08:43:40;;;;;;;10.13;8.30;;;28.30;99.90;;;;;;5068885;28;20559;-68
2021/06/18 08:46:07;;;;;;;7.80;6.63;;;28.50;99.70;;;;;;5060232;28;20451;-67
2021/06/18 08:48:34;;;;;;;8.90;8.07;;;28.60;99.70;;;;;;5061586;28;20436;-71
2021/06/18 08:51:04;;;;;;;8.40;7.53;;;28.70;99.90;;;;;;5061368;28;20471;-68
2021/06/18 08:53:35;;;;;;;10.13;7.83;;;28.90;99.90;;;;;;5060374;28;20462;-67
2021/06/18 08:56:04;;;;;;;8.23;7.53;;;29.00;99.70;;;;;;5060131;28;20446;-70
2021/06/18 08:58:31;;;;;;;8.60;7.60;;;29.20;99.80;;;;;;5061291;28;20939;-68
2021/06/18 09:00:58;;;;;;;13.03;8.97;;;29.20;98.60;;;;;;5060520;28;20472;-69
2021/06/18 09:03:41;;;;;;;8.40;7.60;;;29.30;99.10;;;;;;5059548;28;21037;-68
2021/06/18 09:06:32;;;;;;;8.93;8.07;;;29.30;98.40;;;;;;5059179;28;20962;-69
2021/06/18 09:09:17;;;;;;;8.87;7.67;;;29.40;99.90;;;;;;5060790;28;20463;-68
2021/06/18 09:11:47;;;;;;;9.40;8.47;;;29.50;98.60;;;;;;5061574;28;20435;-70
2021/06/18 09:14:18;;;;;;;8.37;7.67;;;29.50;99.20;;;;;;5060341;28;20459;-67
2021/06/18 09:17:12;;;;;;;9.43;7.93;;;29.60;97.70;;;;;;5058988;28;20435;-68
2021/06/18 09:19:42;;;;;;;12.57;8.60;;;29.80;96.40;;;;;;5063207;28;20473;-69
2021/06/18 09:22:15;;;;;;;7.90;7.10;;;29.90;98.60;;;;;;5070672;28;21013;-69
2021/06/18 09:24:45;;;;;;;8.57;7.57;;;30.00;97.20;;;;;;5070771;28;20956;-70
2021/06/18 09:27:12;;;;;;;8.30;7.60;;;30.30;97.10;;;;;;5069947;28;20538;-71
2021/06/18 09:29:40;;;;;;;8.83;7.83;;;30.40;97.50;;;;;;5070079;28;20508;-69
2021/06/18 09:32:09;;;;;;;9.87;7.77;;;30.50;95.90;;;;;;5070838;28;20963;-69
2021/06/18 09:34:49;;;;;;;10.37;8.60;;;30.60;95.40;;;;;;5070886;28;20474;-68
2021/06/18 09:37:39;;;;;;;8.63;7.80;;;30.60;93.40;;;;;;5070727;28;20427;-68
2021/06/18 09:40:13;;;;;;;8.97;8.00;;;30.70;94.00;;;;;;5070239;28;20582;-69
2021/06/18 09:42:56;;;;;;;8.90;8.00;;;30.90;95.60;;;;;;5070104;28;20481;-69
2021/06/18 09:45:24;;;;;;;8.87;7.83;;;31.10;92.20;;;;;;5068348;28;20455;-69
2021/06/18 09:47:52;;;;;;;8.80;7.97;;;31.20;92.90;;;;;;5069915;28;20443;-69
2021/06/18 09:50:27;;;;;;;10.23;7.37;;;31.40;93.60;;;;;;5069540;28;20878;-69
2021/06/18 09:53:14;;;;;;;7.97;7.27;;;31.50;94.50;;;;;;5070377;28;20892;-68
2021/06/18 09:55:42;;;;;;;8.30;7.60;;;31.70;94.10;;;;;;5058813;28;20980;-69
2021/06/18 09:58:11;;;;;;;8.53;7.20;;;32.00;91.30;;;;;;5059361;28;20458;-68
2021/06/18 10:00:38;;;;;;;21.97;8.33;;;32.20;88.40;;;;;;5060024;28;20479;-69
2021/06/18 10:03:10;;;;;;;7.77;7.07;;;32.20;90.40;;;;;;5059049;28;20460;-70
2021/06/18 10:05:39;;;;;;;9.20;6.97;;;32.60;84.30;;;;;;5058981;28;20461;-69
2021/06/18 10:08:08;;;;;;;8.43;7.63;;;33.30;88.80;;;;;;5059946;28;20447;-69
2021/06/18 10:10:38;;;;;;;8.27;7.10;;;33.80;85.80;;;;;;5059732;28;20451;-68
2021/06/18 10:13:05;;;;;;;7.23;6.53;;;34.50;78.80;;;;;;5059030;28;20503;-69
2021/06/18 10:15:37;;;;;;;6.93;6.23;;;34.90;79.20;;;;;;5059425;28;20443;-70
2021/06/18 10:18:09;;;;;;;7.10;6.50;;;35.70;73.70;;;;;;5058662;28;20441;-71
2021/06/18 10:20:35;;;;;;;6.73;6.10;;;36.20;72.50;;;;;;5052958;28;21195;-69
2021/06/18 10:23:06;;;;;;;7.50;6.90;;;36.70;71.40;;;;;;5049683;28;20896;-69
2021/06/18 10:25:38;;;;;;;6.67;6.17;;;37.10;69.50;;;;;;5049866;28;20517;-70
2021/06/18 10:28:06;;;;;;;6.47;5.77;;;37.50;64.80;;;;;;5050113;28;20436;-68
2021/06/18 10:30:35;;;;;;;6.80;6.10;;;37.70;66.50;;;;;;5054078;28;20531;-68
2021/06/18 10:33:23;;;;;;;6.67;6.17;;;37.50;65.60;;;;;;5055104;28;20464;-67
2021/06/18 10:35:57;;;;;;;7.03;6.40;;;37.30;61.60;;;;;;5058519;28;20458;-67
2021/06/18 10:38:30;;;;;;;6.43;5.90;;;37.00;63.10;;;;;;5058016;28;20944;-68
2021/06/18 10:41:01;;;;;;;8.43;6.20;;;37.00;66.70;;;;;;5058956;28;20551;-68
2021/06/18 10:43:39;;;;;;;6.80;6.03;;;36.70;69.80;;;;;;5059123;28;20463;-68
2021/06/18 10:46:12;;;;;;;6.40;5.80;;;37.00;63.50;;;;;;5058675;28;20534;-68
2021/06/18 10:48:59;;;;;;;6.80;6.20;;;36.40;58.30;;;;;;5058710;28;20432;-69
2021/06/18 10:51:38;;;;;;;7.60;6.90;;;36.10;58.80;;;;;;5058604;28;20915;-69
2021/06/18 10:54:10;;;;;;;6.00;5.40;;;35.90;59.70;;;;;;5057735;28;20517;-70
2021/06/18 10:57:01;;;;;;;5.97;5.43;;;35.60;60.40;;;;;;5058369;28;20447;-70
2021/06/18 10:59:33;;;;;;;6.20;5.60;;;35.70;57.70;;;;;;5057694;28;20440;-69
2021/06/18 11:02:01;;;;;;;5.97;5.20;;;35.80;64.20;;;;;;5056689;28;20463;-70
2021/06/18 11:04:40;;;;;;;9.33;4.97;;;36.40;60.60;;;;;;5059703;28;20448;-69
2021/06/18 11:07:24;;;;;;;5.20;4.80;;;36.90;54.00;;;;;;5057401;28;20992;-70
2021/06/18 11:09:52;;;;;;;5.53;4.70;;;37.40;58.70;;;;;;5059771;28;20505;-69
2021/06/18 11:12:44;;;;;;;5.93;4.53;;;37.90;53.40;;;;;;5059248;28;20451;-70
2021/06/18 11:15:37;;;;;;;6.00;4.70;;;37.60;52.50;;;;;;5058366;28;20464;-69
2021/06/18 11:18:11;;;;;;;4.97;4.33;;;37.40;52.60;;;;;;5059539;28;20975;-70
2021/06/18 11:20:56;;;;;;;5.77;4.90;;;37.80;54.20;;;;;;5059518;28;20675;-70
2021/06/18 11:23:26;;;;;;;5.93;5.00;;;38.30;53.80;;;;;;5059673;28;20555;-69
2021/06/18 11:26:02;;;;;;;5.23;4.00;;;38.50;49.90;;;;;;5058133;28;20452;-69
2021/06/18 11:28:42;;;;;;;6.10;4.47;;;38.40;52.80;;;;;;5057664;28;20463;-68
2021/06/18 11:31:12;;;;;;;6.23;4.60;;;38.60;53.10;;;;;;5056249;28;20443;-68
2021/06/18 11:33:56;;;;;;;5.27;4.80;;;38.90;49.40;;;;;;5049150;28;20479;-69
2021/06/18 11:36:42;;;;;;;5.13;4.67;;;39.20;48.60;;;;;;5048843;28;20845;-69
2021/06/18 11:39:17;;;;;;;4.90;4.37;;;39.30;50.50;;;;;;5048157;28;20456;-69
2021/06/18 11:41:48;;;;;;;6.73;4.90;;;39.40;51.20;;;;;;5049016;28;20981;-69
2021/06/18 11:44:21;;;;;;;4.20;3.60;;;39.60;47.70;;;;;;5056192;28;20483;-68
2021/06/18 11:46:53;;;;;;;7.00;5.53;;;39.50;47.70;;;;;;5070526;28;20469;-69
2021/06/18 11:49:21;;;;;;;4.27;3.87;;;40.00;49.20;;;;;;5070810;28;20871;-70
2021/06/18 11:51:50;;;;;;;4.23;3.53;;;40.50;48.60;;;;;;5073555;28;20469;-68
2021/06/18 11:54:30;;;;;;;3.03;2.73;;;40.80;45.00;;;;;;5072469;28;20463;-70
2021/06/18 11:57:06;;;;;;;4.97;3.83;;;41.00;44.60;;;;;;5072162;28;20526;-69
2021/06/18 11:59:37;;;;;;;5.00;3.50;;;40.80;42.20;;;;;;5060041;28;20558;-69
2021/06/18 12:02:18;;;;;;;4.27;3.73;;;40.80;45.20;;;;;;5059138;28;20444;-69
2021/06/18 12:04:45;;;;;;;6.13;4.00;;;40.80;45.00;;;;;;5053264;28;20518;-70
2021/06/18 12:07:12;;;;;;;4.60;4.17;;;40.90;44.60;;;;;;5069651;28;20522;-68
2021/06/18 12:09:40;;;;;;;5.17;4.53;;;41.10;45.60;;;;;;5069402;28;21078;-69
2021/06/18 12:12:09;;;;;;;5.10;4.00;;;40.50;39.20;;;;;;5069884;28;20501;-70
2021/06/18 12:14:39;;;;;;;4.53;4.13;;;39.70;41.10;;;;;;5070240;28;20448;-69
2021/06/18 12:17:06;;;;;;;5.43;4.40;;;38.90;42.80;;;;;;5069650;28;20482;-69
2021/06/18 12:19:35;;;;;;;5.30;4.80;;;38.50;44.40;;;;;;5059321;28;20443;-69
2021/06/18 12:22:06;;;;;;;5.50;4.77;;;39.00;43.80;;;;;;5059541;28;20479;-69
2021/06/18 12:24:35;;;;;;;4.67;4.27;;;39.00;45.10;;;;;;5058732;28;20934;-69
2021/06/18 12:27:05;;;;;;;4.77;4.27;;;39.10;50.00;;;;;;5055556;28;20531;-69
2021/06/18 12:29:32;;;;;;;4.87;4.47;;;39.90;47.50;;;;;;5049252;28;20542;-70
2021/06/18 12:32:01;;;;;;;5.53;4.37;;;40.60;43.60;;;;;;5049938;28;20491;-69
2021/06/18 12:34:29;;;;;;;6.50;4.63;;;41.30;43.80;;;;;;5049826;28;20505;-70
2021/06/18 12:37:01;;;;;;;5.07;4.57;;;41.60;45.30;;;;;;5050470;28;20452;-68
2021/06/18 12:39:28;;;;;;;4.33;3.93;;;41.60;43.70;;;;;;5050854;28;20432;-70
2021/06/18 12:41:55;;;;;;;5.10;4.23;;;41.50;42.00;;;;;;5051265;28;20531;-69
2021/06/18 12:44:37;;;;;;;5.93;4.23;;;41.40;43.90;;;;;;5050163;28;20551;-70
2021/06/18 12:47:10;;;;;;;4.73;4.23;;;40.90;40.10;;;;;;5051231;28;20555;-68
2021/06/18 12:49:36;;;;;;;5.67;4.80;;;41.10;42.50;;;;;;5050454;28;20459;-68
2021/06/18 12:52:11;;;;;;;4.93;4.30;;;41.30;43.40;;;;;;5051408;28;20566;-70